Gosford Narara Research, New South Wales

12:58 AM AEST on August 26, 2016 (GMT +1000)
Narara | | Change Station

Elev 72 ft 33.41 °S, 151.33 °E | Updated 14 minutes ago

Clear
Clear
43.8 °F
Feels Like 44 °F
N
0.0
Wind Variable Wind from NNW
Gusts 2.0 mph

Today
High -- | Low -- °F
--% Chance of Precip.
Yesterday
High -- | Low -- °F
Precip. -- in
Pressure 29.98 in
Visibility 6.2 miles
Clouds
Windchill 44 °F
Dew Point 42 °F
Humidity 92%
Rainfall 0.00 in
Snow Depth Not available.
6:20 AM 5:33 PM
Last Quarter, 45% visible
METAR YSRI 251430Z AUTO 07001KT 9999 // NCD 06/03 Q1015
Pressure 29.98 in
Visibility 6.2 miles
Clouds
Windchill 44 °F
Dew Point 42 °F
Humidity 92%
Rainfall 0.00 in
Snow Depth Not available.
6:20 AM 5:33 PM
Last Quarter, 45% visible
METAR YSRI 251430Z AUTO 07001KT 9999 // NCD 06/03 Q1015

10-Day Weather Forecast

Almanac

Astronomy

Aug. 26, 2016 Rise Set
Actual Time
Civil Twilight
Nautical Twilight
Astronomical Twilight
Moon
Length of Visible Light
Length of Day
Tomorrow will be .
, % of the Moon is Illuminated

Today's Extremes

Country Highs Country Lows

Community

WunderPhotos

Upload Photos

1,934,850 photos uploaded!

WunderBlog® & News

Nearby

Air Quality

  Air Quality AQ Index Pollutant
Not available.

Snow Depth

Station Depth Elevation

Earthquake Activity

City Distance Mag. Time & Date
Minimum magnitude displayed is 2.5.

Coastal Water Temperatures

Place Temperature

Stations

Nearby Weather Stations

Station Location Temp. Windchill Dew Point Humidity Wind Precip. Elev Updated Type